Magic Kingdom, Florida
Current Conditions -  °F | °C
As of 9:50 PM on Thursday 30 Oct 2014 (Local Time) from KISM Reporting Station
Broken Clouds Broken Clouds  
Wind Chill: 75°   Ceiling: 8500
Heat Index: 75°   Visibility: 10mi
Dew Point: 66°   Wind: 0mph
Humidity: 73%   Direction: NA
Pressure: 29.91"   Gusts: NA
Location:  28.42°N, 81.58°W
Report Text: KISM 310150Z 00000KT 10SM FEW060 BKN085 24/19 A2991 RMK LAST
Loading
Personal Weather Stations






























Interactive Weather Map
Tropical Storm Tracking
New forecast layout! Learn more

10-Day Weather Forecast

Advertisements
Track Severe Weather on mobile